Riverside, United Kingdom
Current Conditions -  °F | °C
As of 11:20 AM on Tuesday 21 Oct 2014 (Local Time) from EGLC Reporting Station
Scattered Clouds Scattered Clouds  
Wind Chill: 57°   Ceiling: Unl
Heat Index: 57°   Visibility: 6mi
Dew Point: 41°   Wind: 26mph
Humidity: 55%   Direction: 280°W
Pressure: 29.62"   Gusts: 40mph
Location:  51.49°N, 0.09°E
Report Text: EGLC 211020Z 28023G35KT 9999 SCT040 14/05 Q1003
Loading
Personal Weather Stations






























Interactive Weather Map
Tropical Storm Tracking
New forecast layout! Learn more

10-Day Weather Forecast

Advertisements
Track Severe Weather on mobile